createdAt,value
2019-02-04T00:00:41.234Z,73.57
2019-02-04T00:03:13.287Z,71.80
2019-02-04T00:05:44.147Z,73.73
2019-02-04T00:08:16.114Z,71.20
2019-02-04T00:10:47.288Z,72.87
2019-02-04T00:13:18.147Z,72.87
2019-02-04T00:15:49.105Z,73.50
2019-02-04T00:18:21.816Z,72.97
2019-02-04T00:20:52.660Z,74.00
2019-02-04T00:23:24.240Z,73.30
2019-02-04T00:25:56.234Z,73.80
2019-02-04T00:28:29.310Z,74.07
2019-02-04T00:30:59.971Z,73.63
2019-02-04T00:33:31.750Z,73.33
2019-02-04T00:36:02.574Z,72.53
2019-02-04T00:38:33.220Z,73.10
2019-02-04T00:41:04.302Z,71.77
2019-02-04T00:43:35.678Z,72.13
2019-02-04T00:46:06.573Z,71.67
2019-02-04T00:48:37.752Z,72.07
2019-02-04T00:51:08.702Z,74.53
2019-02-04T00:53:41.736Z,72.97
2019-02-04T00:56:12.352Z,72.53
2019-02-04T00:58:43.242Z,72.17
2019-02-04T01:01:19.845Z,73.00
2019-02-04T01:03:50.777Z,72.77
2019-02-04T01:06:21.352Z,73.30
2019-02-04T01:08:53.110Z,73.33
2019-02-04T01:11:24.961Z,73.37
2019-02-04T01:13:55.512Z,73.73
2019-02-04T01:16:26.983Z,73.20
2019-02-04T01:18:58.086Z,73.57
2019-02-04T01:21:28.915Z,72.70
2019-02-04T01:24:00.213Z,73.53
2019-02-04T01:26:32.826Z,72.47
2019-02-04T01:29:03.846Z,72.27
2019-02-04T01:31:34.938Z,72.43
2019-02-04T01:34:05.864Z,72.77
2019-02-04T01:36:37.139Z,73.93
2019-02-04T01:39:09.885Z,73.30
2019-02-04T01:41:40.498Z,72.40
2019-02-04T01:44:11.186Z,72.50
2019-02-04T01:46:41.857Z,72.80
2019-02-04T01:49:12.797Z,71.60
2019-02-04T01:51:45.559Z,71.00
2019-02-04T01:54:16.159Z,71.17
2019-02-04T01:56:47.048Z,71.43
2019-02-04T01:59:17.649Z,72.20
2019-02-04T02:01:48.567Z,72.83
2019-02-04T02:04:19.084Z,71.27
2019-02-04T02:06:49.888Z,70.10
2019-02-04T02:09:24.838Z,70.80
2019-02-04T02:11:55.516Z,72.03
2019-02-04T02:14:26.359Z,71.23
2019-02-04T02:16:59.500Z,71.27
2019-02-04T02:19:30.053Z,71.97
2019-02-04T02:22:00.810Z,71.60
2019-02-04T02:24:31.334Z,72.70
2019-02-04T02:27:02.146Z,70.93
2019-02-04T02:29:34.113Z,71.33
2019-02-04T02:32:04.727Z,72.07
2019-02-04T02:34:35.323Z,70.43
2019-02-04T02:37:06.327Z,71.33
2019-02-04T02:39:37.176Z,70.07
2019-02-04T02:42:07.796Z,70.27
2019-02-04T02:44:38.478Z,70.43
2019-02-04T02:47:08.965Z,69.70
2019-02-04T02:49:39.571Z,68.60
2019-02-04T02:52:11.490Z,70.13
2019-02-04T02:54:42.238Z,69.40
2019-02-04T02:57:12.862Z,70.53
2019-02-04T02:59:43.618Z,69.30
2019-02-04T03:02:14.185Z,70.80
2019-02-04T03:04:44.967Z,71.63
2019-02-04T03:07:15.614Z,71.03
2019-02-04T03:09:46.362Z,69.17
2019-02-04T03:12:16.898Z,70.60
2019-02-04T03:14:47.949Z,71.90
2019-02-04T03:17:18.777Z,70.83
2019-02-04T03:19:49.305Z,70.60
2019-02-04T03:22:19.834Z,69.80
2019-02-04T03:24:50.463Z,72.13
2019-02-04T03:27:21.946Z,70.10
2019-02-04T03:29:52.575Z,70.07
2019-02-04T03:32:23.150Z,71.00
2019-02-04T03:34:53.747Z,70.40
2019-02-04T03:37:24.407Z,70.47
2019-02-04T03:39:55.029Z,70.63
2019-02-04T03:42:25.880Z,70.83
2019-02-04T03:44:56.763Z,71.83
2019-02-04T03:47:27.317Z,69.70
2019-02-04T03:49:57.850Z,70.57
2019-02-04T03:52:28.590Z,69.10
2019-02-04T03:54:59.081Z,69.87
2019-02-04T03:57:29.970Z,71.50
2019-02-04T04:00:00.757Z,70.90
2019-02-04T04:02:33.667Z,71.13
2019-02-04T04:05:04.528Z,70.83
2019-02-04T04:07:35.237Z,69.17
2019-02-04T04:10:06.441Z,70.17
2019-02-04T04:12:36.939Z,71.27
2019-02-04T04:15:08.158Z,70.67
2019-02-04T04:17:38.722Z,72.57
2019-02-04T04:20:11.598Z,70.50
2019-02-04T04:22:42.238Z,69.13
2019-02-04T04:25:14.092Z,69.77
2019-02-04T04:27:44.676Z,69.50
2019-02-04T04:30:23.415Z,69.60
2019-02-04T04:32:55.133Z,69.57
2019-02-04T04:35:25.710Z,68.93
2019-02-04T04:37:56.466Z,69.93
2019-02-04T04:40:26.967Z,69.47
2019-02-04T04:42:57.682Z,69.17
2019-02-04T04:45:28.548Z,68.33
2019-02-04T04:47:59.186Z,68.07
2019-02-04T04:50:29.948Z,71.10
2019-02-04T04:53:00.619Z,68.40
2019-02-04T04:55:31.312Z,69.63
2019-02-04T04:58:03.926Z,68.83
2019-02-04T05:00:35.841Z,69.13
2019-02-04T05:03:06.582Z,69.97
2019-02-04T05:05:39.692Z,68.60
2019-02-04T05:08:10.536Z,70.07
2019-02-04T05:10:41.088Z,68.97
2019-02-04T05:13:11.573Z,68.97
2019-02-04T05:15:42.170Z,70.00
2019-02-04T05:18:12.747Z,68.43
2019-02-04T05:20:43.274Z,69.47
2019-02-04T05:23:13.824Z,67.87
2019-02-04T05:25:44.417Z,68.53
2019-02-04T05:28:16.245Z,68.07
2019-02-04T05:30:47.086Z,68.20
2019-02-04T05:33:18.662Z,67.87
2019-02-04T05:35:49.310Z,70.33
2019-02-04T05:38:19.818Z,68.33
2019-02-04T05:40:50.404Z,68.87
2019-02-04T05:43:20.961Z,70.43
2019-02-04T05:45:51.566Z,70.90
2019-02-04T05:48:22.098Z,69.70
2019-02-04T05:50:52.822Z,71.00
2019-02-04T05:53:23.940Z,69.53
2019-02-04T05:55:54.585Z,70.70
2019-02-04T05:58:25.180Z,69.03
2019-02-04T06:00:55.712Z,68.90
2019-02-04T06:03:26.663Z,70.27
2019-02-04T06:05:57.157Z,69.67
2019-02-04T06:08:27.677Z,69.10
2019-02-04T06:10:58.170Z,69.37
2019-02-04T06:13:28.645Z,69.00
2019-02-04T06:15:59.158Z,69.00
2019-02-04T06:18:29.707Z,70.13
2019-02-04T06:21:00.212Z,70.90
2019-02-04T06:23:30.693Z,70.90
2019-02-04T06:26:01.363Z,73.43
2019-02-04T06:28:32.095Z,71.93
2019-02-04T06:31:02.686Z,70.10
2019-02-04T06:33:34.765Z,70.13
2019-02-04T06:36:05.305Z,69.40
2019-02-04T06:38:35.991Z,70.13
2019-02-04T06:41:07.491Z,69.30
2019-02-04T06:43:39.372Z,69.23
2019-02-04T06:46:10.826Z,70.50
2019-02-04T06:48:41.433Z,70.67
2019-02-04T06:51:12.055Z,70.50
2019-02-04T06:53:42.533Z,70.77
2019-02-04T06:56:13.029Z,72.93
2019-02-04T06:58:43.617Z,70.43
2019-02-04T07:01:14.154Z,71.70
2019-02-04T07:03:44.819Z,71.03
2019-02-04T07:06:15.365Z,73.23
2019-02-04T07:08:46.413Z,72.30
2019-02-04T07:11:16.925Z,71.93
2019-02-04T07:13:47.599Z,71.40
2019-02-04T07:16:17.993Z,70.70
2019-02-04T07:18:48.521Z,70.90
2019-02-04T07:21:20.998Z,72.50
2019-02-04T07:23:53.066Z,72.17
2019-02-04T07:26:23.626Z,72.00
2019-02-04T07:28:54.079Z,70.83
2019-02-04T07:31:24.724Z,71.77
2019-02-04T07:33:55.251Z,70.17
2019-02-04T07:36:25.884Z,71.00
2019-02-04T07:38:56.433Z,71.57
2019-02-04T07:41:27.005Z,70.07
2019-02-04T07:43:57.610Z,70.40
2019-02-04T07:46:28.302Z,71.23
2019-02-04T07:48:59.320Z,70.07
2019-02-04T07:51:31.253Z,70.47
2019-02-04T07:54:01.857Z,68.80
2019-02-04T07:56:32.387Z,70.47
2019-02-04T07:59:03.087Z,70.27
2019-02-04T08:01:34.183Z,71.93
2019-02-04T08:04:04.820Z,69.50
2019-02-04T08:06:36.459Z,69.10
2019-02-04T08:09:09.959Z,71.10
2019-02-04T08:11:40.702Z,71.73
2019-02-04T08:14:11.644Z,70.47
2019-02-04T08:16:42.205Z,69.43
2019-02-04T08:19:12.714Z,70.93
2019-02-04T08:21:43.283Z,69.67
2019-02-04T08:24:13.884Z,70.13
2019-02-04T08:26:46.006Z,70.77
2019-02-04T08:29:16.547Z,70.00
2019-02-04T08:31:47.450Z,70.47
2019-02-04T08:34:18.077Z,72.43
2019-02-04T08:36:48.822Z,72.67
2019-02-04T08:39:19.509Z,71.03
2019-02-04T08:41:50.118Z,73.10
2019-02-04T08:44:20.644Z,71.67
2019-02-04T08:46:51.194Z,71.73
2019-02-04T08:49:21.745Z,72.77
2019-02-04T08:51:52.331Z,72.30
2019-02-04T08:54:25.407Z,73.67
2019-02-04T08:56:55.952Z,73.63
2019-02-04T08:59:26.501Z,73.10
2019-02-04T09:01:58.084Z,72.60
2019-02-04T09:04:28.688Z,74.60
2019-02-04T09:06:59.287Z,73.87
2019-02-04T09:09:30.296Z,72.83
2019-02-04T09:12:01.170Z,73.00
2019-02-04T09:14:31.768Z,73.80
2019-02-04T09:17:02.475Z,72.40
2019-02-04T09:19:33.063Z,73.20
2019-02-04T09:22:04.005Z,74.30
2019-02-04T09:24:34.676Z,72.40
2019-02-04T09:27:05.345Z,72.60
2019-02-04T09:29:42.250Z,72.70
2019-02-04T09:32:15.325Z,73.43
2019-02-04T09:34:46.231Z,73.37
2019-02-04T09:37:16.780Z,72.73
2019-02-04T09:39:48.365Z,73.90
2019-02-04T09:42:19.050Z,73.30
2019-02-04T09:44:49.659Z,74.40
2019-02-04T09:47:20.234Z,73.83
2019-02-04T09:49:50.819Z,75.00
2019-02-04T09:52:21.390Z,73.57
2019-02-04T09:54:51.893Z,74.37
2019-02-04T09:57:23.473Z,73.67
2019-02-04T09:59:56.718Z,72.97
2019-02-04T10:02:27.672Z,77.80
2019-02-04T10:04:58.147Z,73.50
2019-02-04T10:07:28.666Z,73.47
2019-02-04T10:09:59.247Z,73.90
2019-02-04T10:12:29.866Z,73.00
2019-02-04T10:15:00.689Z,73.70
2019-02-04T10:17:31.438Z,73.43
2019-02-04T10:20:02.041Z,75.47
2019-02-04T10:22:34.222Z,75.13
2019-02-04T10:25:05.505Z,73.83
2019-02-04T10:27:36.913Z,72.90
2019-02-04T10:30:10.902Z,75.03
2019-02-04T10:32:44.292Z,75.27
2019-02-04T10:35:16.883Z,73.93
2019-02-04T10:37:47.114Z,75.03
2019-02-04T10:40:20.007Z,75.07
2019-02-04T10:42:55.180Z,75.30
2019-02-04T10:45:25.930Z,76.20
2019-02-04T10:47:57.091Z,77.00
2019-02-04T10:50:45.133Z,75.93
2019-02-04T10:53:08.597Z,76.10
2019-02-04T10:55:39.566Z,76.17
2019-02-04T10:58:12.152Z,77.20
2019-02-04T11:00:44.885Z,78.37
2019-02-04T11:03:16.165Z,78.57
2019-02-04T11:05:46.953Z,79.83
2019-02-04T11:08:17.462Z,79.97
2019-02-04T11:10:48.147Z,79.77
2019-02-04T11:13:19.176Z,79.37
2019-02-04T11:15:51.044Z,80.63
2019-02-04T11:18:21.617Z,80.70
2019-02-04T11:20:58.100Z,82.97
2019-02-04T11:23:25.937Z,83.33
2019-02-04T11:25:59.787Z,81.83
2019-02-04T11:28:31.981Z,81.77
2019-02-04T11:31:05.181Z,81.53
2019-02-04T11:33:37.301Z,81.23
2019-02-04T11:36:08.608Z,81.17
2019-02-04T11:38:39.885Z,82.30
2019-02-04T11:41:10.631Z,83.13
2019-02-04T11:43:42.259Z,84.20
2019-02-04T11:46:13.329Z,82.40
2019-02-04T11:48:43.874Z,84.07
2019-02-04T11:51:14.760Z,83.07
2019-02-04T11:53:47.867Z,84.27
2019-02-04T11:56:22.668Z,83.47
2019-02-04T11:58:55.523Z,84.97
2019-02-04T12:01:26.995Z,83.67
2019-02-04T12:03:59.743Z,84.13
2019-02-04T12:06:30.364Z,84.67
2019-02-04T12:09:00.865Z,83.53
2019-02-04T12:11:33.029Z,84.13
2019-02-04T12:14:03.750Z,83.63
2019-02-04T12:16:34.253Z,82.80
2019-02-04T12:19:05.261Z,83.30
2019-02-04T12:21:36.009Z,84.83
2019-02-04T12:24:06.913Z,84.23
2019-02-04T12:26:39.513Z,83.20
2019-02-04T12:29:10.233Z,85.20
2019-02-04T12:31:41.118Z,83.07
2019-02-04T12:34:16.783Z,83.70
2019-02-04T12:36:48.906Z,82.53
2019-02-04T12:39:21.716Z,84.83
2019-02-04T12:41:52.369Z,83.27
2019-02-04T12:44:23.212Z,83.03
2019-02-04T12:46:55.427Z,84.57
2019-02-04T12:49:26.139Z,84.97
2019-02-04T12:51:56.719Z,85.20
2019-02-04T12:54:27.453Z,84.73
2019-02-04T12:56:58.042Z,83.63
2019-02-04T12:59:28.543Z,83.63
2019-02-04T13:01:59.129Z,82.40
2019-02-04T13:04:29.646Z,83.70
2019-02-04T13:07:00.443Z,84.07
2019-02-04T13:09:31.159Z,85.20
2019-02-04T13:12:01.682Z,85.23
2019-02-04T13:14:32.484Z,84.00
2019-02-04T13:17:06.420Z,85.37
2019-02-04T13:19:44.570Z,84.63
2019-02-04T13:22:17.296Z,83.97
2019-02-04T13:24:47.962Z,84.20
2019-02-04T13:27:23.063Z,84.90
2019-02-04T13:29:53.301Z,85.63
2019-02-04T13:32:26.184Z,85.80
2019-02-04T13:34:57.881Z,85.87
2019-02-04T13:37:28.603Z,86.43
2019-02-04T13:40:24.586Z,87.20
2019-02-04T13:42:36.775Z,89.07
2019-02-04T13:45:20.063Z,87.47
2019-02-04T13:47:51.220Z,86.47
2019-02-04T13:50:22.349Z,89.27
2019-02-04T13:53:06.400Z,85.63
2019-02-04T13:55:37.458Z,88.07
2019-02-04T13:58:08.895Z,88.40
2019-02-04T14:00:41.368Z,86.20
2019-02-04T14:03:17.611Z,87.53
2019-02-04T14:05:51.072Z,87.47
2019-02-04T14:08:28.449Z,87.53
2019-02-04T14:11:00.967Z,87.57
2019-02-04T14:13:35.320Z,89.47
2019-02-04T14:16:09.138Z,87.07
2019-02-04T14:18:40.339Z,86.80
2019-02-04T14:21:11.010Z,89.43
2019-02-04T14:23:42.513Z,87.13
2019-02-04T14:26:13.162Z,87.03
2019-02-04T14:28:43.725Z,86.07
2019-02-04T14:31:14.456Z,89.30
2019-02-04T14:33:45.086Z,87.63
2019-02-04T14:36:15.920Z,87.40
2019-02-04T14:38:47.265Z,88.57
2019-02-04T14:41:17.868Z,86.80
2019-02-04T14:43:55.208Z,87.90
2019-02-04T14:46:39.510Z,89.07
2019-02-04T14:49:39.783Z,88.00
2019-02-04T14:52:38.719Z,89.53
2019-02-04T14:55:54.424Z,87.50
2019-02-04T14:58:42.587Z,86.77
2019-02-04T15:02:02.296Z,87.97
2019-02-04T15:05:38.113Z,88.63
2019-02-04T15:08:44.522Z,87.97
2019-02-04T15:11:41.756Z,88.53
2019-02-04T15:14:43.049Z,90.10
2019-02-04T15:17:30.985Z,90.13
2019-02-04T15:20:38.211Z,89.07
2019-02-04T15:23:48.529Z,88.93
2019-02-04T15:26:38.440Z,91.10
2019-02-04T15:29:23.174Z,90.20
2019-02-04T15:32:24.292Z,90.97
2019-02-04T15:35:46.536Z,90.37
2019-02-04T15:38:46.301Z,90.70
2019-02-04T15:41:34.737Z,90.10
2019-02-04T15:44:28.397Z,91.07
2019-02-04T15:47:27.809Z,90.30
2019-02-04T15:50:54.934Z,91.43
2019-02-04T15:53:25.536Z,92.23
2019-02-04T15:55:56.155Z,91.73
2019-02-04T15:58:26.850Z,92.23
2019-02-04T16:00:57.524Z,92.40
2019-02-04T16:03:28.441Z,92.30
2019-02-04T16:05:58.926Z,92.53
2019-02-04T16:08:33.957Z,91.83
2019-02-04T16:11:08.071Z,92.30
2019-02-04T16:13:38.632Z,94.20
2019-02-04T16:16:09.176Z,93.67
2019-02-04T16:18:40.868Z,92.93
2019-02-04T16:21:16.402Z,93.37
2019-02-04T16:23:48.340Z,93.60
2019-02-04T16:26:25.802Z,94.13
2019-02-04T16:31:38.412Z,93.73
2019-02-04T16:34:15.296Z,93.47
2019-02-04T16:36:47.021Z,94.40
2019-02-04T16:39:18.586Z,92.53
2019-02-04T16:41:56.485Z,94.37
2019-02-04T16:44:26.197Z,94.67
2019-02-04T16:46:57.823Z,94.23
2019-02-04T16:49:28.474Z,92.90
2019-02-04T16:51:59.013Z,92.57
2019-02-04T16:54:29.801Z,93.57
2019-02-04T16:57:00.780Z,93.83
2019-02-04T16:59:33.218Z,93.90
2019-02-04T17:02:03.877Z,94.77
2019-02-04T17:04:34.568Z,93.63
2019-02-04T17:07:05.622Z,93.70
2019-02-04T17:09:37.021Z,93.50
2019-02-04T17:12:08.780Z,94.40
2019-02-04T17:14:39.424Z,92.63
2019-02-04T17:17:10.228Z,93.70
2019-02-04T17:19:40.828Z,92.77
2019-02-04T17:22:11.473Z,94.90
2019-02-04T17:24:42.185Z,95.77
2019-02-04T17:27:12.748Z,94.17
2019-02-04T17:29:43.481Z,96.40
2019-02-04T17:32:14.077Z,94.20
2019-02-04T17:34:45.937Z,93.93
2019-02-04T17:37:16.960Z,93.57
2019-02-04T17:39:49.098Z,93.30
2019-02-04T17:42:19.700Z,93.83
2019-02-04T17:44:51.012Z,94.77
2019-02-04T17:47:23.344Z,93.73
2019-02-04T17:49:53.982Z,96.00
2019-02-04T17:52:25.568Z,96.30
2019-02-04T17:54:56.214Z,93.10
2019-02-04T17:57:26.785Z,94.00
2019-02-04T17:59:57.644Z,95.80
2019-02-04T18:02:28.494Z,95.97
2019-02-04T18:05:08.128Z,95.47
2019-02-04T18:07:35.551Z,94.97
2019-02-04T18:10:06.811Z,96.37
2019-02-04T18:12:37.384Z,94.23
2019-02-04T18:15:09.476Z,93.43
2019-02-04T18:17:40.042Z,95.77
2019-02-04T18:20:11.119Z,94.47
2019-02-04T18:22:41.676Z,95.73
2019-02-04T18:25:13.151Z,93.50
2019-02-04T18:27:46.113Z,94.20
2019-02-04T18:30:18.426Z,94.73
2019-02-04T18:32:49.107Z,94.23
2019-02-04T18:35:19.837Z,94.87
2019-02-04T18:37:50.701Z,94.57
2019-02-04T18:40:22.504Z,94.10
2019-02-04T18:42:53.577Z,95.27
2019-02-04T18:45:27.278Z,95.20
2019-02-04T18:47:57.884Z,95.90
2019-02-04T18:50:29.189Z,95.10
2019-02-04T18:53:00.228Z,100.80
2019-02-04T18:55:32.271Z,109.80
2019-02-04T18:58:03.045Z,107.80
2019-02-04T19:00:33.931Z,107.63
2019-02-04T19:03:16.529Z,107.30
2019-02-04T19:05:37.959Z,105.87
2019-02-04T19:08:08.601Z,105.37
2019-02-04T19:10:39.153Z,107.03
2019-02-04T19:13:09.737Z,104.37
2019-02-04T19:15:40.541Z,106.53
2019-02-04T19:18:13.773Z,105.03
2019-02-04T19:20:44.349Z,106.37
2019-02-04T19:23:16.034Z,104.63
2019-02-04T19:25:47.212Z,107.40
2019-02-04T19:28:18.908Z,105.37
2019-02-04T19:31:02.036Z,105.43
2019-02-04T19:33:34.047Z,104.77
2019-02-04T19:36:05.234Z,105.33
2019-02-04T19:38:35.942Z,105.87
2019-02-04T19:41:06.661Z,105.37
2019-02-04T19:43:38.784Z,105.43
2019-02-04T19:46:12.050Z,104.97
2019-02-04T19:48:42.671Z,105.67
2019-02-04T19:51:18.376Z,107.27
2019-02-04T19:53:48.905Z,104.73
2019-02-04T19:56:19.455Z,105.23
2019-02-04T19:58:49.964Z,105.80
2019-02-04T20:01:20.432Z,108.17
2019-02-04T20:03:51.808Z,107.00
2019-02-04T20:06:22.773Z,107.77
2019-02-04T20:08:53.631Z,107.03
2019-02-04T20:11:24.153Z,107.60
2019-02-04T20:13:54.740Z,106.47
2019-02-04T20:16:25.313Z,106.93
2019-02-04T20:18:56.239Z,109.47
2019-02-04T20:21:26.862Z,107.30
2019-02-04T20:23:57.393Z,106.67
2019-02-04T20:26:27.984Z,108.10
2019-02-04T20:28:58.526Z,107.20
2019-02-04T20:31:29.206Z,107.47
2019-02-04T20:33:59.755Z,104.83
2019-02-04T20:36:30.246Z,106.30
2019-02-04T20:39:00.754Z,106.53
2019-02-04T20:41:32.966Z,106.33
2019-02-04T20:44:03.462Z,108.80
2019-02-04T20:46:36.474Z,106.47
2019-02-04T20:49:06.979Z,105.47
2019-02-04T20:51:37.615Z,105.43
2019-02-04T20:54:19.229Z,106.87
2019-02-04T20:56:40.441Z,104.00
2019-02-04T20:59:11.200Z,106.70
2019-02-04T21:01:41.835Z,106.43
2019-02-04T21:04:12.407Z,106.53
2019-02-04T21:06:42.978Z,107.50
2019-02-04T21:09:14.730Z,106.63
2019-02-04T21:11:46.078Z,106.97
2019-02-04T21:14:16.617Z,107.30
2019-02-04T21:16:47.370Z,106.30
2019-02-04T21:19:17.957Z,104.60
2019-02-04T21:21:48.443Z,105.83
2019-02-04T21:24:19.120Z,106.03
2019-02-04T21:26:49.699Z,107.40
2019-02-04T21:29:20.335Z,105.30
2019-02-04T21:31:50.906Z,104.60
2019-02-04T21:34:21.446Z,105.90
2019-02-04T21:36:52.006Z,106.17
2019-02-04T21:39:22.985Z,104.40
2019-02-04T21:41:53.746Z,105.57
2019-02-04T21:44:24.433Z,104.27
2019-02-04T21:46:54.937Z,106.27
2019-02-04T21:49:25.587Z,105.23
2019-02-04T21:51:56.145Z,105.27
2019-02-04T21:54:26.727Z,104.27
2019-02-04T21:56:57.609Z,106.83
2019-02-04T21:59:28.134Z,104.53
2019-02-04T22:01:58.887Z,104.53
2019-02-04T22:04:29.490Z,105.43
2019-02-04T22:07:00.602Z,104.27
2019-02-04T22:09:31.198Z,105.10
2019-02-04T22:12:01.802Z,105.63
2019-02-04T22:14:33.872Z,106.60
2019-02-04T22:17:04.442Z,105.87
2019-02-04T22:19:36.089Z,104.70
2019-02-04T22:22:06.624Z,106.80
2019-02-04T22:24:37.251Z,106.27
2019-02-04T22:27:07.843Z,105.47
2019-02-04T22:29:38.582Z,105.80
2019-02-04T22:32:09.158Z,106.50
2019-02-04T22:34:39.811Z,106.50
2019-02-04T22:37:10.465Z,106.83
2019-02-04T22:39:40.993Z,105.27
2019-02-04T22:42:11.519Z,105.50
2019-02-04T22:44:41.997Z,106.57
2019-02-04T22:47:12.910Z,107.10
2019-02-04T22:49:43.425Z,105.43
2019-02-04T22:52:13.987Z,106.37
2019-02-04T22:54:44.433Z,105.33
2019-02-04T22:57:14.937Z,106.77
2019-02-04T22:59:45.414Z,105.77
2019-02-04T23:02:15.957Z,106.37
2019-02-04T23:04:46.654Z,106.30
2019-02-04T23:07:17.472Z,107.37
2019-02-04T23:09:48.257Z,105.80
2019-02-04T23:12:19.241Z,108.40
2019-02-04T23:14:50.394Z,105.83
2019-02-04T23:17:21.161Z,106.10
2019-02-04T23:19:51.847Z,106.23
2019-02-04T23:22:22.500Z,106.60
2019-02-04T23:24:53.039Z,107.87
2019-02-04T23:27:23.765Z,105.73
2019-02-04T23:29:54.381Z,105.60
2019-02-04T23:32:24.997Z,106.73
2019-02-04T23:34:55.618Z,105.93
2019-02-04T23:37:26.196Z,106.37
2019-02-04T23:39:58.221Z,106.40
2019-02-04T23:42:28.739Z,106.30
2019-02-04T23:44:59.173Z,106.30
2019-02-04T23:47:30.721Z,108.03
2019-02-04T23:50:01.348Z,107.57
2019-02-04T23:52:31.964Z,107.43
2019-02-04T23:55:02.409Z,107.93
2019-02-04T23:57:32.953Z,106.53
